• Join FlightAware (Why Join?)
  • Login
  • US Flag 
12:55PM EDT


 

Airport Tracker/Info


-or-


 

Live Flight TrackerFlight Track Log ✈ SKW4544 ✈ 14-May-2013 ✈ KBIL - KSLC

Flight Track Log - Related Links

Times and Time Zones

All times are in EDT time to prevent confusion due to time zone crossing. See the SKW4544 flight status page for this flight to view local times or setup timezone preferences in your user account.

Time Position Orientation Groundspeed Altitude Reporting Facility
EDT Latitude Longitude Course Direction KTS MPH feet Rate Location/Type
08:30AM 45.6322 -108.7846 215° Southwest  Level FlightAware Approximate
08:31AM 45.5604 -108.8564 215° Southwest  Level FlightAware Approximate
08:32AM 45.4886 -108.9281 215° Southwest  Level FlightAware Approximate
08:33AM 45.4169 -108.9998 215° Southwest  Level FlightAware Approximate
08:34AM 45.3452 -109.0715 215° Southwest  Level FlightAware Approximate
08:35AM 45.2735 -109.1431 215° Southwest  Level FlightAware Approximate
08:36AM 45.2010 -109.2128 213° Southwest  Level FlightAware Approximate
08:37AM 45.1272 -109.2799 213° Southwest  Level FlightAware Approximate
08:38AM 45.0535 -109.3469 213° Southwest  Level FlightAware Approximate
08:39AM 44.9818 -109.4182 215° Southwest  Level FlightAware Approximate
08:40AM 44.9103 -109.4897 215° Southwest  Level FlightAware Approximate
08:41AM 44.8388 -109.5612 215° Southwest  Level FlightAware Approximate
08:42AM 44.7675 -109.6328 215° Southwest  Level FlightAware Approximate
08:43AM 44.6961 -109.7043 215° Southwest  Level FlightAware Approximate
08:44AM 44.6246 -109.7756 215° Southwest  Level FlightAware Approximate
08:45AM 44.5525 -109.8453 213° Southwest  Level FlightAware Approximate
08:46AM 44.4793 -109.9129 213° Southwest  Level FlightAware Approximate
08:47AM 44.4061 -109.9804 213° Southwest  Level FlightAware Approximate
08:48AM 44.3338 -110.0495 216° Southwest  Level FlightAware Approximate
08:49AM 44.2625 -110.1206 214° Southwest  Level FlightAware Approximate
08:50AM 44.1897 -110.1886 214° Southwest  Level FlightAware Approximate
08:51AM 44.1168 -110.2564 214° Southwest  Level FlightAware Approximate
08:52AM 44.0439 -110.3241 214° Southwest  Level FlightAware Approximate
08:53AM 43.9710 -110.3916 214° Southwest  Level FlightAware Approximate
08:54AM 43.8980 -110.4589 214° Southwest  Level FlightAware Approximate
08:55AM 43.8250 -110.5261 214° Southwest  Level FlightAware Approximate
08:56AM 43.7520 -110.5931 214° Southwest  Level FlightAware Approximate
08:57AM 43.6789 -110.6599 213° Southwest  Level FlightAware Approximate
08:58AM 43.6071 -110.7289 223° Southwest  Level FlightAware Approximate
08:59AM 43.5426 -110.8108 223° Southwest  Level FlightAware Approximate
09:00AM 43.4782 -110.8926 223° Southwest  Level FlightAware Approximate
09:01AM 43.4136 -110.9742 223° Southwest  Level FlightAware Approximate
09:02AM 43.3487 -111.0551 221° Southwest  Level FlightAware Approximate
09:03AM 43.2830 -111.1347 221° Southwest  Level FlightAware Approximate
09:04AM 43.2172 -111.2141 221° Southwest  Level FlightAware Approximate
09:05AM 43.1513 -111.2934 221° Southwest  Level FlightAware Approximate
09:06AM 43.0854 -111.3725 221° Southwest  Level FlightAware Approximate
09:07AM 43.0195 -111.4514 221° Southwest  Level FlightAware Approximate
09:08AM 42.9535 -111.5302 221° Southwest  Level FlightAware Approximate
09:09AM 42.8874 -111.6087 221° Southwest  Level FlightAware Approximate
09:10AM 42.8213 -111.6871 221° Southwest  Level FlightAware Approximate
09:11AM 42.7551 -111.7654 221° Southwest  Level FlightAware Approximate
09:12AM 42.6889 -111.8435 221° Southwest  Level FlightAware Approximate
09:13AM 42.6035 -111.8614 186° South  Level FlightAware Approximate
09:14AM 42.5166 -111.8761 188° South  Level FlightAware Approximate
09:15AM 42.4298 -111.8924 188° South  Level FlightAware Approximate
09:16AM 42.3430 -111.9086 188° South  Level FlightAware Approximate
09:17AM 42.2560 -111.9201 185° South  Level FlightAware Approximate
09:18AM 42.1687 -111.9310 185° South  Level FlightAware Approximate
09:19AM 42.0820 -111.9479 189° South  Level FlightAware Approximate
09:20AM 41.9955 -111.9665 189° South  Level FlightAware Approximate
09:21AM 41.9089 -111.9843 185° South  Level FlightAware Approximate
09:22AM 41.8217 -111.9952 185° South  Level FlightAware Approximate
09:23AM 41.7345 -112.0070 186° South  Level FlightAware Approximate
09:24AM 41.6474 -112.0194 186° South  Level FlightAware Approximate
09:25AM 41.5603 -112.0319 186° South  Level FlightAware Approximate
09:26AM 41.4750 -112.0500 180° South  Level FlightAware Approximate
09:27AM 41.3886 -112.0333 180° South  Level FlightAware Approximate
09:28AM 41.3012 -112.0295 169° South  Level FlightAware Approximate
09:29AM 41.2146 -112.0131 176° South  Level FlightAware Approximate
09:30AM 41.1273 -112.0044 176° South  Level FlightAware Approximate
09:31AM 41.0398 -112.0000 180° South  Level FlightAware Approximate
09:32AM 40.9524 -111.9919 176° South  Level FlightAware Approximate
09:33AM 40.8651 -111.9828 166° South  Level FlightAware Approximate
09:34AM 40.7833 -111.9667 180° South  Level FlightAware Approximate